Time;durP1;ratioP1;P1;durP2;ratioP2;P2;SDS_P1;SDS_P2;PMS_P1;PMS_P2;Temp;Humidity;BMP_temperature;BMP_pressure;BME280_temperature;BME280_humidity;BME280_pressure;Samples;Min_cycle;Max_cycle;Signal;HPM_P1;HPM_P2
2021/12/04 00:00:37;;;;;;;4.13;2.85;;;;;;;5.75;53.05;98008.09;3375356;29;20052;-72
2021/12/04 00:02:18;;;;;;;3.08;1.88;;;;;;;5.74;53.09;98005.66;3374486;29;20047;-73
2021/12/04 00:03:59;;;;;;;2.83;2.25;;;;;;;5.71;53.03;98017.47;3374973;29;20072;-73
2021/12/04 00:05:46;;;;;;;3.00;2.22;;;;;;;5.70;53.06;98010.53;3376135;29;20076;-73
2021/12/04 00:07:28;;;;;;;3.53;2.45;;;;;;;5.68;52.97;98007.31;3375229;29;20052;-73
2021/12/04 00:09:10;;;;;;;2.90;2.33;;;;;;;5.69;52.95;98009.72;3376625;29;20052;-73
2021/12/04 00:10:51;;;;;;;2.58;2.10;;;;;;;5.68;53.04;98013.41;3375889;29;20053;-72
2021/12/04 00:12:33;;;;;;;3.60;2.13;;;;;;;5.67;52.87;98017.03;3376011;29;20040;-72
2021/12/04 00:14:14;;;;;;;3.08;1.95;;;;;;;5.67;53.03;98011.75;3375836;29;20131;-73
2021/12/04 00:15:54;;;;;;;3.00;2.10;;;;;;;5.67;52.97;98005.66;3375902;29;20112;-73
2021/12/04 00:17:35;;;;;;;2.45;1.80;;;;;;;5.66;52.92;98007.50;3374538;29;20084;-72
2021/12/04 00:19:16;;;;;;;4.03;2.00;;;;;;;5.68;53.03;98008.09;3374847;29;20041;-73
2021/12/04 00:20:57;;;;;;;2.10;1.90;;;;;;;5.69;53.16;98008.91;3374484;29;20484;-73
2021/12/04 00:22:38;;;;;;;2.17;1.90;;;;;;;5.69;53.12;97999.16;3377169;29;20092;-73
2021/12/04 00:24:19;;;;;;;3.35;2.17;;;;;;;5.70;53.00;98015.81;3376316;29;20090;-71
2021/12/04 00:26:00;;;;;;;4.40;1.65;;;;;;;5.69;52.92;98007.06;3377468;29;20049;-72
2021/12/04 00:27:41;;;;;;;5.53;2.30;;;;;;;5.66;52.92;98007.50;3376008;29;20474;-72
2021/12/04 00:29:23;;;;;;;3.50;2.60;;;;;;;5.66;53.19;98004.84;3376836;29;20060;-74
2021/12/04 00:31:09;;;;;;;1.88;1.35;;;;;;;5.68;53.17;98010.75;3377210;29;20124;-73
2021/12/04 00:33:15;;;;;;;3.83;1.70;;;;;;;5.69;53.15;97999.16;3377038;29;20091;-74
2021/12/04 00:35:06;;;;;;;2.03;1.67;;;;;;;5.67;53.17;98016.22;3376924;29;20078;-73
2021/12/04 00:50:23;;;;;;;4.40;2.67;;;;;;;5.47;52.82;98017.06;3376896;29;20045;-73
2021/12/04 00:52:04;;;;;;;2.92;2.08;;;;;;;5.47;52.84;98021.50;3376903;29;20512;-72
2021/12/04 00:53:46;;;;;;;2.95;1.88;;;;;;;5.44;52.88;98016.63;3375962;29;20055;-71
2021/12/04 00:55:27;;;;;;;3.30;2.10;;;;;;;5.42;53.15;98018.66;3376565;29;20040;-71
2021/12/04 00:57:07;;;;;;;1.70;1.58;;;;;;;5.38;52.91;98014.81;3376755;29;20405;-71
2021/12/04 00:58:48;;;;;;;2.28;1.90;;;;;;;5.34;52.90;98011.75;3376881;29;20460;-73
2021/12/04 01:00:29;;;;;;;2.63;2.05;;;;;;;5.31;52.88;98008.72;3376768;29;20043;-73
2021/12/04 01:02:09;;;;;;;2.35;1.55;;;;;;;5.29;52.81;98016.00;3376901;29;20077;-73
2021/12/04 01:03:50;;;;;;;2.67;1.98;;;;;;;5.27;52.82;98010.94;3376779;29;20051;-74
2021/12/04 01:05:31;;;;;;;2.88;2.03;;;;;;;5.27;52.75;98018.88;3375964;29;20448;-74
2021/12/04 01:07:12;;;;;;;3.33;2.00;;;;;;;5.25;52.81;98011.13;3376806;29;20037;-73
2021/12/04 01:08:52;;;;;;;2.10;1.90;;;;;;;5.22;52.79;98011.56;3376852;29;20051;-73
2021/12/04 01:10:33;;;;;;;3.13;1.83;;;;;;;5.23;52.79;98013.16;3376792;29;20045;-74
2021/12/04 01:12:14;;;;;;;4.03;2.65;;;;;;;5.24;52.99;98016.63;3376646;29;20507;-74
2021/12/04 01:13:54;;;;;;;2.58;2.38;;;;;;;5.25;52.83;98013.78;3377120;29;20075;-73
2021/12/04 01:15:35;;;;;;;2.28;1.70;;;;;;;5.24;52.85;98017.44;3376762;29;20052;-72
2021/12/04 01:17:16;;;;;;;2.78;1.85;;;;;;;5.28;52.75;98019.69;3362814;29;20080;-71
2021/12/04 01:18:56;;;;;;;2.50;2.00;;;;;;;5.28;52.69;98012.56;3371819;29;20059;-73
2021/12/04 01:20:39;;;;;;;3.10;2.13;;;;;;;5.26;52.82;98025.16;3376587;29;20076;-70
2021/12/04 01:22:20;;;;;;;;;;;;;;;5.36;52.97;98014.19;3376976;29;20044;-75
2021/12/04 01:24:01;;;;;;;3.33;2.00;;;;;;;5.23;52.65;98007.06;3375795;29;20037;-74
2021/12/04 01:25:43;;;;;;;3.97;1.85;;;;;;;5.14;52.64;98000.38;3373246;29;20289;-73
2021/12/04 01:27:24;;;;;;;4.43;2.05;;;;;;;5.09;52.83;98019.47;3376163;29;20048;-75
2021/12/04 01:29:05;;;;;;;2.33;1.80;;;;;;;5.08;52.73;98006.44;3376220;29;20053;-71
2021/12/04 01:30:45;;;;;;;2.10;1.73;;;;;;;5.07;52.97;98015.38;3376269;29;20040;-73
2021/12/04 01:32:26;;;;;;;4.03;2.60;;;;;;;5.03;52.70;98009.69;3375968;29;20112;-73
2021/12/04 01:34:07;;;;;;;2.38;1.95;;;;;;;5.01;52.84;98014.38;3376604;29;20092;-73
2021/12/04 01:35:48;;;;;;;5.25;1.40;;;;;;;5.00;52.89;98018.00;3376369;29;20047;-74
2021/12/04 01:37:28;;;;;;;2.72;1.80;;;;;;;5.00;52.79;98010.88;3375018;29;20040;-75
2021/12/04 01:39:10;;;;;;;2.35;1.80;;;;;;;5.01;52.78;98011.72;3376129;29;20051;-73
2021/12/04 01:40:51;;;;;;;;;;;;;;;5.13;52.86;98020.66;3376421;29;20356;-72
2021/12/04 01:42:35;;;;;;;2.10;1.42;;;;;;;5.06;52.49;98017.22;3375530;29;19915;-71
2021/12/04 01:44:16;;;;;;;3.33;2.03;;;;;;;5.05;52.72;98012.94;3375950;29;20421;-72
2021/12/04 01:45:57;;;;;;;2.65;2.17;;;;;;;4.98;52.64;98017.38;3375914;29;20041;-71
2021/12/04 01:47:39;;;;;;;1.77;1.63;;;;;;;4.95;52.66;98018.59;3375944;29;20382;-71
2021/12/04 01:49:19;;;;;;;2.97;2.22;;;;;;;4.94;52.78;98016.16;3376214;29;20043;-72
2021/12/04 01:51:00;;;;;;;3.20;2.15;;;;;;;4.90;52.71;98014.94;3376155;29;20215;-71
2021/12/04 01:52:41;;;;;;;2.40;1.70;;;;;;;4.90;52.74;98020.22;3376519;29;20076;-73
2021/12/04 01:54:22;;;;;;;4.32;2.08;;;;;;;4.89;52.84;98019.41;3376040;29;20420;-72
2021/12/04 01:56:03;;;;;;;5.03;1.98;;;;;;;4.86;52.79;98030.38;3376218;29;20155;-72
2021/12/04 01:57:44;;;;;;;2.00;1.80;;;;;;;4.86;52.73;98026.91;3376135;29;20080;-74
2021/12/04 01:59:27;;;;;;;1.85;1.50;;;;;;;4.80;52.83;98018.78;3375919;29;20079;-71
2021/12/04 02:01:09;;;;;;;1.55;1.42;;;;;;;4.78;52.86;98023.44;3376355;29;20071;-73
2021/12/04 02:02:50;;;;;;;;;;;;;;;4.89;52.99;98037.06;3376275;29;20044;-72
2021/12/04 02:04:30;;;;;;;2.20;1.50;;;;;;;4.82;52.81;98024.66;3376093;29;19986;-72
2021/12/04 02:06:12;;;;;;;1.92;1.25;;;;;;;4.81;52.91;98028.31;3376216;29;20060;-73
2021/12/04 02:07:53;;;;;;;3.25;2.10;;;;;;;4.81;52.90;98027.50;3376104;29;20044;-70
2021/12/04 02:09:35;;;;;;;2.17;1.67;;;;;;;4.78;52.82;98020.81;3376320;29;20036;-71
2021/12/04 02:11:16;;;;;;;2.38;1.95;;;;;;;4.77;52.81;98021.78;3375851;29;20040;-72
2021/12/04 02:12:57;;;;;;;2.67;1.90;;;;;;;4.76;52.94;98024.66;3375859;29;20147;-72
2021/12/04 02:14:40;;;;;;;2.30;2.20;;;;;;;4.75;52.96;98031.75;3375982;29;20068;-72
2021/12/04 02:16:22;;;;;;;3.20;1.80;;;;;;;4.75;52.86;98029.13;3375640;29;20630;-74
2021/12/04 02:18:05;;;;;;;2.33;1.55;;;;;;;4.78;52.85;98022.63;3361828;29;20077;-73
2021/12/04 02:19:47;;;;;;;2.17;1.92;;;;;;;4.79;53.01;98035.63;3370640;29;20530;-72
2021/12/04 02:21:27;;;;;;;3.25;2.13;;;;;;;4.82;53.08;98032.56;3375424;29;20052;-73
2021/12/04 02:23:09;;;;;;;2.75;1.77;;;;;;;4.81;52.86;98022.22;3375974;29;20044;-72
2021/12/04 02:24:49;;;;;;;3.65;1.83;;;;;;;4.81;52.93;98033.59;3375825;29;20076;-73
2021/12/04 02:26:30;;;;;;;2.22;2.03;;;;;;;4.77;52.85;98037.63;3376075;29;20049;-72
2021/12/04 02:28:12;;;;;;;3.22;1.90;;;;;;;4.77;52.83;98035.00;3375814;29;20043;-73
2021/12/04 02:29:52;;;;;;;2.20;1.88;;;;;;;4.77;52.77;98031.53;3375356;29;20056;-71
2021/12/04 02:31:33;;;;;;;3.17;2.38;;;;;;;4.77;52.91;98042.91;3375769;29;20064;-74
2021/12/04 02:33:16;;;;;;;4.15;2.20;;;;;;;4.77;52.86;98042.09;3375805;29;20049;-74
2021/12/04 02:34:57;;;;;;;2.50;1.60;;;;;;;4.69;52.86;98023.81;3375798;29;20051;-73
2021/12/04 02:36:39;;;;;;;3.53;1.90;;;;;;;4.77;52.77;98039.47;3375908;29;20052;-70
2021/12/04 02:38:23;;;;;;;1.98;1.80;;;;;;;4.79;52.92;98038.25;3375935;29;20071;-73
2021/12/04 02:40:07;;;;;;;1.88;1.77;;;;;;;4.80;52.80;98047.81;3375682;29;20135;-72
2021/12/04 02:41:47;;;;;;;1.73;1.63;;;;;;;4.77;52.75;98044.75;3375734;29;20052;-72
2021/12/04 02:43:32;;;;;;;2.28;2.10;;;;;;;4.77;52.73;98037.63;3375134;29;20047;-71
2021/12/04 02:45:13;;;;;;;3.05;2.60;;;;;;;4.77;52.77;98042.09;3375455;29;20044;-71
2021/12/04 02:46:54;;;;;;;2.28;2.08;;;;;;;4.74;52.75;98032.75;3375779;29;20123;-72
2021/12/04 02:48:36;;;;;;;3.58;2.25;;;;;;;4.74;52.79;98069.69;3375847;29;20508;-74
2021/12/04 02:50:17;;;;;;;3.40;2.15;;;;;;;4.72;52.62;98042.69;3375600;29;20124;-71
2021/12/04 02:52:06;;;;;;;3.67;2.08;;;;;;;4.71;52.72;98043.72;3375702;29;20304;-72
2021/12/04 02:53:46;;;;;;;3.78;2.17;;;;;;;4.67;52.74;98047.75;3375736;29;20096;-71
2021/12/04 02:55:27;;;;;;;3.35;2.40;;;;;;;4.65;52.80;98047.16;3375789;29;20128;-72
2021/12/04 02:57:10;;;;;;;2.67;2.17;;;;;;;4.62;52.73;98044.06;3375381;29;20041;-72
2021/12/04 02:58:55;;;;;;;2.50;2.25;;;;;;;4.61;52.92;98043.25;3374248;29;20040;-73
2021/12/04 03:00:36;;;;;;;3.22;2.03;;;;;;;4.62;52.81;98044.06;3375237;29;20048;-72
2021/12/04 03:02:22;;;;;;;2.58;2.35;;;;;;;4.61;52.79;98055.66;3374493;29;20076;-72
2021/12/04 03:04:10;;;;;;;4.53;2.70;;;;;;;4.61;52.83;98048.53;3375395;29;20044;-73
2021/12/04 03:05:51;;;;;;;3.83;2.00;;;;;;;4.60;52.81;98052.19;3375543;29;20180;-71
2021/12/04 03:07:32;;;;;;;3.10;2.08;;;;;;;4.59;52.90;98054.03;3375469;29;20048;-73
2021/12/04 03:09:14;;;;;;;2.47;1.70;;;;;;;4.59;53.08;98050.56;3375373;29;20134;-72
2021/12/04 03:10:54;;;;;;;;;;;;;;;4.70;52.76;98054.44;3375773;29;20044;-72
2021/12/04 03:12:37;;;;;;;2.95;1.77;;;;;;;4.62;52.63;98052.00;3375539;29;20370;-72
2021/12/04 03:14:19;;;;;;;2.58;2.03;;;;;;;4.59;52.86;98051.41;3375514;29;20500;-72
2021/12/04 03:16:00;;;;;;;4.35;2.25;;;;;;;4.51;52.90;98042.81;3375731;29;20492;-72
2021/12/04 03:17:41;;;;;;;2.47;2.15;;;;;;;4.56;52.71;98056.22;3375467;29;20044;-72
2021/12/04 03:19:21;;;;;;;1.60;1.50;;;;;;;4.53;52.90;98056.63;3375122;29;20053;-71
2021/12/04 03:21:04;;;;;;;2.42;1.90;;;;;;;4.51;52.88;98058.66;3375214;29;20048;-72
2021/12/04 03:22:47;;;;;;;2.58;2.08;;;;;;;4.52;52.95;98055.81;3375390;29;20096;-72
2021/12/04 03:24:29;;;;;;;2.17;1.77;;;;;;;4.53;52.76;98057.44;3375341;29;20214;-72
2021/12/04 03:26:10;;;;;;;2.92;2.05;;;;;;;4.54;53.02;98058.25;3375090;29;20052;-71
2021/12/04 03:27:52;;;;;;;3.33;1.80;;;;;;;4.54;52.75;98052.97;3374931;29;20064;-71
2021/12/04 03:29:38;;;;;;;3.92;2.55;;;;;;;4.55;52.80;98062.53;3374951;29;20060;-74
2021/12/04 03:35:20;;;;;;;3.60;1.85;;;;;;;4.52;52.97;98065.56;3375208;29;20074;-73
2021/12/04 03:41:02;;;;;;;4.82;2.00;;;;;;;4.49;52.40;98060.66;3375584;29;20143;-72
2021/12/04 03:42:43;;;;;;;2.33;2.08;;;;;;;4.49;52.81;98072.03;3375150;29;20044;-72
2021/12/04 03:44:24;;;;;;;2.72;2.00;;;;;;;4.47;52.71;98057.44;3375127;29;20531;-71
2021/12/04 03:46:07;;;;;;;2.85;2.05;;;;;;;4.48;52.69;98059.03;3375120;29;20044;-71
2021/12/04 03:47:51;;;;;;;3.42;2.83;;;;;;;4.40;52.85;98052.09;3374412;29;20052;-71
2021/12/04 03:49:31;;;;;;;2.28;1.83;;;;;;;4.52;52.75;98065.56;3380048;29;20056;-79
2021/12/04 03:51:12;;;;;;;4.95;2.67;;;;;;;4.56;52.93;98077.34;3379655;29;20048;-78
2021/12/04 03:52:53;;;;;;;1.58;1.33;;;;;;;4.57;53.34;98068.44;3375859;29;20048;-75
2021/12/04 03:54:35;;;;;;;3.25;1.90;;;;;;;4.49;53.58;98044.81;3375370;29;20048;-73
2021/12/04 03:56:20;;;;;;;3.63;2.05;;;;;;;4.54;53.84;98066.16;3362645;29;20041;-72
2021/12/04 03:58:01;;;;;;;2.28;1.85;;;;;;;4.58;54.30;98070.03;3373633;29;20068;-72
2021/12/04 03:59:45;;;;;;;5.45;2.05;;;;;;;4.63;54.52;98067.63;3374209;29;20051;-72
2021/12/04 04:01:26;;;;;;;1.50;1.40;;;;;;;4.69;54.39;98074.75;3377287;29;20100;-71
2021/12/04 04:03:07;;;;;;;1.90;1.65;;;;;;;4.75;54.55;98076.63;3377648;29;20504;-74
2021/12/04 04:04:47;;;;;;;5.40;1.60;;;;;;;4.82;54.72;98069.53;3376830;29;20163;-73
2021/12/04 04:06:28;;;;;;;2.85;1.80;;;;;;;4.86;54.96;98074.44;3377468;29;20049;-75
2021/12/04 04:08:12;;;;;;;8.63;2.33;;;;;;;4.88;54.93;98077.66;3377992;29;20045;-74
2021/12/04 04:09:53;;;;;;;4.40;2.28;;;;;;;4.90;54.99;98060.63;3389767;29;20127;-75
2021/12/04 04:11:36;;;;;;;12.02;1.65;;;;;;;4.94;55.13;98053.13;3366543;29;20085;-73
2021/12/04 04:13:17;;;;;;;9.77;1.88;;;;;;;5.02;55.17;98082.78;3375276;29;20044;-74
2021/12/04 04:14:58;;;;;;;2.95;1.52;;;;;;;5.06;55.17;98067.38;3377101;29;20056;-74
2021/12/04 04:16:40;;;;;;;1.70;1.35;;;;;;;5.11;55.18;98079.97;3377608;29;20393;-74
2021/12/04 04:18:20;;;;;;;1.80;1.70;;;;;;;5.11;55.00;98086.09;3376479;29;20041;-76
2021/12/04 04:20:03;;;;;;;5.38;2.13;;;;;;;5.12;54.99;98098.28;3377639;29;20480;-75
2021/12/04 04:21:44;;;;;;;2.50;1.73;;;;;;;5.09;54.90;98087.31;3377754;29;20503;-74
2021/12/04 04:23:25;;;;;;;4.38;1.73;;;;;;;5.12;54.94;98086.91;3378011;29;20039;-76
2021/12/04 04:25:07;;;;;;;5.13;2.50;;;;;;;5.10;54.79;98094.19;3364124;29;20041;-74
2021/12/04 04:26:48;;;;;;;2.53;1.73;;;;;;;5.12;54.76;98087.72;3374235;29;20509;-75
2021/12/04 04:28:29;;;;;;;2.20;2.00;;;;;;;5.15;54.65;98087.31;3376646;29;20044;-73
2021/12/04 04:30:13;;;;;;;2.55;1.85;;;;;;;5.18;54.90;98092.19;3376428;29;20416;-73
2021/12/04 04:31:55;;;;;;;4.65;1.80;;;;;;;5.23;55.57;98099.50;3377121;29;20061;-74
2021/12/04 04:33:40;;;;;;;3.10;2.20;;;;;;;5.29;55.57;98089.97;3377262;29;20091;-74
2021/12/04 04:35:24;;;;;;;5.57;1.70;;;;;;;5.32;55.28;98092.22;3375822;29;20040;-74
2021/12/04 04:37:14;;;;;;;2.90;2.40;;;;;;;5.36;55.33;98093.44;3374152;29;20048;-73
2021/12/04 05:11:07;;;;;;;1.70;1.58;;;;;;;5.74;55.57;98121.97;3375974;29;20575;-73
2021/12/04 05:12:53;;;;;;;3.50;2.05;;;;;;;5.77;55.55;98134.78;3364462;29;20426;-73
2021/12/04 05:14:36;;;;;;;2.33;2.10;;;;;;;5.80;56.07;98115.84;3376099;29;20128;-78
2021/12/04 05:16:17;;;;;;;;;;;;;;;5.98;56.70;98133.78;3370759;29;20064;-78
2021/12/04 05:18:09;;;;;;;2.47;2.00;;;;;;;6.00;56.42;98131.78;3388931;29;19923;-76
2021/12/04 05:19:54;;;;;;;2.55;1.77;;;;;;;6.05;56.23;98135.44;3351279;29;20053;-74
2021/12/04 05:21:35;;;;;;;5.15;2.20;;;;;;;6.08;56.61;98135.00;3373282;29;20131;-76
2021/12/04 05:23:18;;;;;;;1.60;1.50;;;;;;;6.22;58.23;98142.94;3376264;29;20045;-74
2021/12/04 05:24:58;;;;;;;2.63;1.90;;;;;;;6.22;57.32;98145.59;3376280;29;20051;-73
2021/12/04 05:26:39;;;;;;;1.70;1.50;;;;;;;6.14;56.46;98135.22;3375579;29;20045;-75
2021/12/04 05:28:20;;;;;;;2.67;1.85;;;;;;;6.12;56.61;98127.50;3375788;29;20048;-75
2021/12/04 05:30:00;;;;;;;3.53;1.92;;;;;;;6.09;56.60;98126.06;3362502;29;20131;-74
2021/12/04 05:31:41;;;;;;;4.63;2.35;;;;;;;6.03;56.87;98142.75;3373519;29;20047;-78
2021/12/04 05:33:22;;;;;;;5.53;1.77;;;;;;;6.03;56.41;98148.03;3376861;29;20044;-76
2021/12/04 05:35:03;;;;;;;7.43;1.88;;;;;;;6.07;56.95;98143.97;3376001;29;20044;-76
2021/12/04 05:36:44;;;;;;;4.25;1.65;;;;;;;6.10;57.00;98148.84;3375362;29;20083;-77
2021/12/04 05:38:25;;;;;;;1.65;1.52;;;;;;;6.06;56.83;98152.91;3376183;29;20052;-76
2021/12/04 05:40:10;;;;;;;2.55;1.60;;;;;;;6.04;56.64;98149.69;3373635;29;20063;-75
2021/12/04 05:41:51;;;;;;;4.90;1.95;;;;;;;6.06;56.56;98150.25;3393096;29;20040;-76
2021/12/04 05:43:34;;;;;;;3.13;1.87;;;;;;;6.07;56.56;98151.09;3378830;29;20145;-77
2021/12/04 05:45:20;;;;;;;5.07;1.80;;;;;;;6.03;56.64;98148.03;3376343;29;20308;-75
2021/12/04 05:47:10;;;;;;;3.15;1.92;;;;;;;6.05;56.40;98161.88;3373629;29;20048;-78
2021/12/04 05:56:06;;;;;;;2.25;1.67;;;;;;;5.99;56.69;98146.81;3376321;29;20508;-76
2021/12/04 05:57:47;;;;;;;2.05;1.80;;;;;;;6.02;56.62;98161.47;3375447;29;20131;-75
2021/12/04 05:59:29;;;;;;;1.52;1.40;;;;;;;6.05;56.34;98155.78;3376244;29;20048;-77
2021/12/04 06:01:10;;;;;;;1.70;1.60;;;;;;;6.04;56.55;98154.13;3385690;29;20036;-81
2021/12/04 06:02:51;;;;;;;7.00;2.10;;;;;;;6.03;56.53;98163.09;3374530;29;20119;-80
2021/12/04 06:04:32;;;;;;;6.18;2.33;;;;;;;5.99;56.32;98164.50;3372411;29;20041;-79
2021/12/04 06:06:13;;;;;;;4.50;1.77;;;;;;;5.96;56.42;98171.00;3375414;29;20067;-75
2021/12/04 06:07:53;;;;;;;4.05;2.13;;;;;;;5.98;56.22;98171.63;3376157;29;20412;-76
2021/12/04 06:09:34;;;;;;;2.33;1.60;;;;;;;6.01;56.36;98173.84;3362603;29;20045;-76
2021/12/04 06:11:15;;;;;;;8.10;1.67;;;;;;;6.05;56.61;98174.28;3374959;29;20495;-77
2021/12/04 06:12:55;;;;;;;4.65;2.03;;;;;;;6.04;56.62;98181.41;3376407;29;20049;-78
